sensor_id;sensor_type;location;lat;lon;timestamp;P1;durP1;ratioP1;P2;durP2;ratioP2
18532;SDS011;9396;51.510;11.934;2024-03-02T00:00:52;45.17;;;29.57;;
18532;SDS011;9396;51.510;11.934;2024-03-02T00:03:19;44.53;;;27.97;;
18532;SDS011;9396;51.510;11.934;2024-03-02T00:05:50;41.93;;;27.47;;
18532;SDS011;9396;51.510;11.934;2024-03-02T00:08:22;45.87;;;26.87;;
18532;SDS011;9396;51.510;11.934;2024-03-02T00:10:51;44.27;;;28.27;;
18532;SDS011;9396;51.510;11.934;2024-03-02T00:13:20;47.13;;;28.30;;
18532;SDS011;9396;51.510;11.934;2024-03-02T00:15:51;43.70;;;28.27;;
18532;SDS011;9396;51.510;11.934;2024-03-02T00:18:19;43.07;;;26.80;;
18532;SDS011;9396;51.510;11.934;2024-03-02T00:20:47;41.33;;;27.47;;
18532;SDS011;9396;51.510;11.934;2024-03-02T00:23:16;43.07;;;26.40;;
18532;SDS011;9396;51.510;11.934;2024-03-02T00:25:46;40.60;;;25.70;;
18532;SDS011;9396;51.510;11.934;2024-03-02T00:28:15;41.47;;;25.80;;
18532;SDS011;9396;51.510;11.934;2024-03-02T00:33:30;45.23;;;26.27;;
18532;SDS011;9396;51.510;11.934;2024-03-02T00:35:58;44.20;;;26.60;;
18532;SDS011;9396;51.510;11.934;2024-03-02T00:38:27;41.00;;;26.70;;
18532;SDS011;9396;51.510;11.934;2024-03-02T00:40:54;42.17;;;26.50;;
18532;SDS011;9396;51.510;11.934;2024-03-02T00:46:16;44.07;;;26.47;;
18532;SDS011;9396;51.510;11.934;2024-03-02T00:48:54;40.30;;;24.20;;
18532;SDS011;9396;51.510;11.934;2024-03-02T00:51:22;40.93;;;26.03;;
18532;SDS011;9396;51.510;11.934;2024-03-02T00:53:51;41.83;;;25.17;;
18532;SDS011;9396;51.510;11.934;2024-03-02T00:56:20;44.97;;;25.83;;
18532;SDS011;9396;51.510;11.934;2024-03-02T00:58:48;44.10;;;25.17;;
18532;SDS011;9396;51.510;11.934;2024-03-02T01:01:14;43.50;;;26.07;;
18532;SDS011;9396;51.510;11.934;2024-03-02T01:03:41;42.33;;;27.13;;
18532;SDS011;9396;51.510;11.934;2024-03-02T01:06:08;40.40;;;26.23;;
18532;SDS011;9396;51.510;11.934;2024-03-02T01:08:35;40.53;;;25.80;;
18532;SDS011;9396;51.510;11.934;2024-03-02T01:11:03;40.47;;;26.43;;
18532;SDS011;9396;51.510;11.934;2024-03-02T01:13:31;40.77;;;25.43;;
18532;SDS011;9396;51.510;11.934;2024-03-02T01:15:58;43.47;;;26.77;;
18532;SDS011;9396;51.510;11.934;2024-03-02T01:18:25;43.27;;;27.43;;
18532;SDS011;9396;51.510;11.934;2024-03-02T01:20:52;48.15;;;33.40;;
18532;SDS011;9396;51.510;11.934;2024-03-02T01:23:20;44.83;;;27.97;;
18532;SDS011;9396;51.510;11.934;2024-03-02T01:25:47;44.67;;;28.07;;
18532;SDS011;9396;51.510;11.934;2024-03-02T01:28:15;44.70;;;28.20;;
18532;SDS011;9396;51.510;11.934;2024-03-02T01:30:42;44.70;;;26.50;;
18532;SDS011;9396;51.510;11.934;2024-03-02T01:33:09;44.30;;;26.27;;
18532;SDS011;9396;51.510;11.934;2024-03-02T01:35:35;45.47;;;28.20;;
18532;SDS011;9396;51.510;11.934;2024-03-02T01:38:03;44.90;;;27.97;;
18532;SDS011;9396;51.510;11.934;2024-03-02T01:40:31;45.30;;;27.50;;
18532;SDS011;9396;51.510;11.934;2024-03-02T01:42:58;48.30;;;28.27;;
18532;SDS011;9396;51.510;11.934;2024-03-02T01:45:26;46.73;;;28.37;;
18532;SDS011;9396;51.510;11.934;2024-03-02T01:47:53;50.03;;;28.63;;
18532;SDS011;9396;51.510;11.934;2024-03-02T01:50:26;39.30;;;25.17;;
18532;SDS011;9396;51.510;11.934;2024-03-02T01:52:53;41.60;;;27.10;;
18532;SDS011;9396;51.510;11.934;2024-03-02T01:55:20;42.70;;;26.07;;
18532;SDS011;9396;51.510;11.934;2024-03-02T01:57:47;42.27;;;26.90;;
18532;SDS011;9396;51.510;11.934;2024-03-02T02:00:15;44.40;;;26.20;;
18532;SDS011;9396;51.510;11.934;2024-03-02T02:02:44;41.60;;;25.67;;
18532;SDS011;9396;51.510;11.934;2024-03-02T02:05:11;42.33;;;25.93;;
18532;SDS011;9396;51.510;11.934;2024-03-02T02:07:38;40.50;;;25.40;;
18532;SDS011;9396;51.510;11.934;2024-03-02T02:10:06;43.20;;;25.80;;
18532;SDS011;9396;51.510;11.934;2024-03-02T02:12:33;43.60;;;26.67;;
18532;SDS011;9396;51.510;11.934;2024-03-02T02:15:02;39.93;;;24.87;;
18532;SDS011;9396;51.510;11.934;2024-03-02T02:17:29;42.50;;;27.00;;
18532;SDS011;9396;51.510;11.934;2024-03-02T02:19:57;42.10;;;25.67;;
18532;SDS011;9396;51.510;11.934;2024-03-02T02:22:25;42.30;;;26.90;;
18532;SDS011;9396;51.510;11.934;2024-03-02T02:24:51;43.00;;;26.43;;
18532;SDS011;9396;51.510;11.934;2024-03-02T02:27:18;40.70;;;25.63;;
18532;SDS011;9396;51.510;11.934;2024-03-02T02:29:45;38.87;;;25.63;;
18532;SDS011;9396;51.510;11.934;2024-03-02T02:32:11;45.57;;;26.10;;
18532;SDS011;9396;51.510;11.934;2024-03-02T02:34:38;43.43;;;27.50;;
18532;SDS011;9396;51.510;11.934;2024-03-02T02:37:05;46.47;;;26.43;;
18532;SDS011;9396;51.510;11.934;2024-03-02T02:39:33;39.13;;;25.47;;
18532;SDS011;9396;51.510;11.934;2024-03-02T02:41:59;44.97;;;28.13;;
18532;SDS011;9396;51.510;11.934;2024-03-02T02:44:27;47.50;;;27.63;;
18532;SDS011;9396;51.510;11.934;2024-03-02T02:46:54;41.70;;;26.10;;
18532;SDS011;9396;51.510;11.934;2024-03-02T02:49:21;44.20;;;26.00;;
18532;SDS011;9396;51.510;11.934;2024-03-02T02:51:48;41.20;;;26.53;;
18532;SDS011;9396;51.510;11.934;2024-03-02T02:54:14;46.40;;;26.60;;
18532;SDS011;9396;51.510;11.934;2024-03-02T02:56:42;39.43;;;25.60;;
18532;SDS011;9396;51.510;11.934;2024-03-02T02:59:09;43.50;;;27.83;;
18532;SDS011;9396;51.510;11.934;2024-03-02T03:01:36;48.37;;;29.63;;
18532;SDS011;9396;51.510;11.934;2024-03-02T03:04:02;44.37;;;28.10;;
18532;SDS011;9396;51.510;11.934;2024-03-02T03:06:29;44.33;;;28.07;;
18532;SDS011;9396;51.510;11.934;2024-03-02T03:08:56;43.00;;;27.87;;
18532;SDS011;9396;51.510;11.934;2024-03-02T03:11:22;38.80;;;26.30;;
18532;SDS011;9396;51.510;11.934;2024-03-02T03:13:52;48.23;;;27.87;;
18532;SDS011;9396;51.510;11.934;2024-03-02T03:16:20;43.87;;;26.50;;
18532;SDS011;9396;51.510;11.934;2024-03-02T03:18:46;41.20;;;25.87;;
18532;SDS011;9396;51.510;11.934;2024-03-02T03:21:15;41.20;;;24.87;;
18532;SDS011;9396;51.510;11.934;2024-03-02T03:23:41;41.37;;;26.77;;
18532;SDS011;9396;51.510;11.934;2024-03-02T03:26:08;43.27;;;27.50;;
18532;SDS011;9396;51.510;11.934;2024-03-02T03:28:35;42.87;;;26.03;;
18532;SDS011;9396;51.510;11.934;2024-03-02T03:31:03;40.50;;;25.97;;
18532;SDS011;9396;51.510;11.934;2024-03-02T03:33:30;41.37;;;25.93;;
18532;SDS011;9396;51.510;11.934;2024-03-02T03:35:57;38.93;;;24.73;;
18532;SDS011;9396;51.510;11.934;2024-03-02T03:38:23;39.00;;;25.97;;
18532;SDS011;9396;51.510;11.934;2024-03-02T03:40:50;39.17;;;25.60;;
18532;SDS011;9396;51.510;11.934;2024-03-02T03:43:16;40.60;;;25.20;;
18532;SDS011;9396;51.510;11.934;2024-03-02T03:45:43;38.87;;;25.47;;
18532;SDS011;9396;51.510;11.934;2024-03-02T03:48:11;44.27;;;25.73;;
18532;SDS011;9396;51.510;11.934;2024-03-02T03:50:38;39.03;;;26.10;;
18532;SDS011;9396;51.510;11.934;2024-03-02T03:53:04;40.53;;;25.37;;
18532;SDS011;9396;51.510;11.934;2024-03-02T03:55:31;43.27;;;26.73;;
18532;SDS011;9396;51.510;11.934;2024-03-02T03:57:58;40.57;;;26.53;;
18532;SDS011;9396;51.510;11.934;2024-03-02T04:00:24;39.43;;;25.83;;
18532;SDS011;9396;51.510;11.934;2024-03-02T04:02:51;40.60;;;24.93;;
18532;SDS011;9396;51.510;11.934;2024-03-02T04:05:19;40.20;;;26.80;;
18532;SDS011;9396;51.510;11.934;2024-03-02T04:07:46;36.90;;;24.90;;
18532;SDS011;9396;51.510;11.934;2024-03-02T04:10:12;38.57;;;25.20;;
18532;SDS011;9396;51.510;11.934;2024-03-02T04:12:39;38.20;;;25.07;;
18532;SDS011;9396;51.510;11.934;2024-03-02T04:15:07;40.40;;;25.43;;
18532;SDS011;9396;51.510;11.934;2024-03-02T04:17:34;42.30;;;25.00;;
18532;SDS011;9396;51.510;11.934;2024-03-02T04:20:01;43.30;;;25.97;;
18532;SDS011;9396;51.510;11.934;2024-03-02T04:22:32;40.97;;;26.20;;
18532;SDS011;9396;51.510;11.934;2024-03-02T04:25:00;40.00;;;25.47;;
18532;SDS011;9396;51.510;11.934;2024-03-02T04:27:29;38.13;;;24.13;;
18532;SDS011;9396;51.510;11.934;2024-03-02T04:29:56;38.67;;;24.43;;
18532;SDS011;9396;51.510;11.934;2024-03-02T04:32:23;46.47;;;26.17;;
18532;SDS011;9396;51.510;11.934;2024-03-02T04:34:49;43.03;;;24.83;;
18532;SDS011;9396;51.510;11.934;2024-03-02T04:37:16;38.93;;;25.33;;
18532;SDS011;9396;51.510;11.934;2024-03-02T04:39:44;41.83;;;26.00;;
18532;SDS011;9396;51.510;11.934;2024-03-02T04:42:11;39.87;;;26.27;;
18532;SDS011;9396;51.510;11.934;2024-03-02T04:44:37;38.90;;;25.20;;
18532;SDS011;9396;51.510;11.934;2024-03-02T04:47:04;44.10;;;25.47;;
18532;SDS011;9396;51.510;11.934;2024-03-02T04:49:31;41.33;;;24.93;;
18532;SDS011;9396;51.510;11.934;2024-03-02T04:51:58;38.53;;;24.50;;
18532;SDS011;9396;51.510;11.934;2024-03-02T04:54:24;34.97;;;24.07;;
18532;SDS011;9396;51.510;11.934;2024-03-02T04:56:52;42.83;;;24.70;;
18532;SDS011;9396;51.510;11.934;2024-03-02T04:59:19;38.30;;;24.03;;
18532;SDS011;9396;51.510;11.934;2024-03-02T05:01:46;38.83;;;23.77;;
18532;SDS011;9396;51.510;11.934;2024-03-02T05:04:13;37.13;;;23.80;;
18532;SDS011;9396;51.510;11.934;2024-03-02T05:06:40;32.97;;;22.43;;
18532;SDS011;9396;51.510;11.934;2024-03-02T05:09:07;38.37;;;23.73;;
18532;SDS011;9396;51.510;11.934;2024-03-02T05:11:34;33.03;;;22.67;;
18532;SDS011;9396;51.510;11.934;2024-03-02T05:14:19;35.87;;;23.37;;
18532;SDS011;9396;51.510;11.934;2024-03-02T05:16:45;35.10;;;23.33;;
18532;SDS011;9396;51.510;11.934;2024-03-02T05:19:12;38.47;;;24.30;;
18532;SDS011;9396;51.510;11.934;2024-03-02T05:21:38;36.07;;;23.97;;
18532;SDS011;9396;51.510;11.934;2024-03-02T05:24:05;34.57;;;22.43;;
18532;SDS011;9396;51.510;11.934;2024-03-02T05:26:32;34.60;;;22.87;;
18532;SDS011;9396;51.510;11.934;2024-03-02T05:28:59;34.37;;;22.47;;
18532;SDS011;9396;51.510;11.934;2024-03-02T05:31:27;32.57;;;22.10;;
18532;SDS011;9396;51.510;11.934;2024-03-02T05:33:53;33.90;;;21.83;;
18532;SDS011;9396;51.510;11.934;2024-03-02T05:36:20;34.50;;;21.50;;
18532;SDS011;9396;51.510;11.934;2024-03-02T05:38:46;37.20;;;23.90;;
18532;SDS011;9396;51.510;11.934;2024-03-02T05:41:13;40.53;;;23.83;;
18532;SDS011;9396;51.510;11.934;2024-03-02T05:43:40;35.27;;;22.30;;
18532;SDS011;9396;51.510;11.934;2024-03-02T05:46:06;33.27;;;22.53;;
18532;SDS011;9396;51.510;11.934;2024-03-02T05:48:34;33.57;;;21.77;;
18532;SDS011;9396;51.510;11.934;2024-03-02T05:51:01;35.53;;;23.20;;
18532;SDS011;9396;51.510;11.934;2024-03-02T05:53:28;33.33;;;20.90;;
18532;SDS011;9396;51.510;11.934;2024-03-02T05:55:55;32.77;;;20.87;;
18532;SDS011;9396;51.510;11.934;2024-03-02T05:58:21;31.33;;;21.67;;
18532;SDS011;9396;51.510;11.934;2024-03-02T06:00:58;33.27;;;20.60;;
18532;SDS011;9396;51.510;11.934;2024-03-02T06:03:25;33.20;;;20.60;;
18532;SDS011;9396;51.510;11.934;2024-03-02T06:05:54;32.33;;;20.77;;
18532;SDS011;9396;51.510;11.934;2024-03-02T06:08:21;27.97;;;19.17;;
18532;SDS011;9396;51.510;11.934;2024-03-02T06:10:48;27.90;;;18.80;;
18532;SDS011;9396;51.510;11.934;2024-03-02T06:13:14;28.07;;;19.00;;
18532;SDS011;9396;51.510;11.934;2024-03-02T06:15:41;29.13;;;18.87;;
18532;SDS011;9396;51.510;11.934;2024-03-02T06:18:08;27.67;;;18.00;;
18532;SDS011;9396;51.510;11.934;2024-03-02T06:20:34;28.57;;;19.50;;
18532;SDS011;9396;51.510;11.934;2024-03-02T06:23:03;29.83;;;19.13;;
18532;SDS011;9396;51.510;11.934;2024-03-02T06:25:30;26.57;;;18.60;;
18532;SDS011;9396;51.510;11.934;2024-03-02T06:27:57;29.30;;;20.60;;
18532;SDS011;9396;51.510;11.934;2024-03-02T06:30:23;30.47;;;20.90;;
18532;SDS011;9396;51.510;11.934;2024-03-02T06:32:50;29.67;;;20.20;;
18532;SDS011;9396;51.510;11.934;2024-03-02T06:35:17;30.10;;;19.40;;
18532;SDS011;9396;51.510;11.934;2024-03-02T06:37:44;29.13;;;19.23;;
18532;SDS011;9396;51.510;11.934;2024-03-02T06:40:12;31.13;;;19.87;;
18532;SDS011;9396;51.510;11.934;2024-03-02T06:42:38;27.07;;;18.67;;
18532;SDS011;9396;51.510;11.934;2024-03-02T06:45:05;34.93;;;20.20;;
18532;SDS011;9396;51.510;11.934;2024-03-02T06:47:32;30.60;;;20.57;;
18532;SDS011;9396;51.510;11.934;2024-03-02T06:49:59;30.77;;;20.03;;
18532;SDS011;9396;51.510;11.934;2024-03-02T06:52:25;31.13;;;19.97;;
18532;SDS011;9396;51.510;11.934;2024-03-02T06:54:52;30.43;;;19.57;;
18532;SDS011;9396;51.510;11.934;2024-03-02T06:57:20;28.57;;;19.37;;
18532;SDS011;9396;51.510;11.934;2024-03-02T06:59:47;30.93;;;19.43;;
18532;SDS011;9396;51.510;11.934;2024-03-02T07:02:15;30.40;;;20.47;;
18532;SDS011;9396;51.510;11.934;2024-03-02T07:04:42;29.33;;;19.70;;
18532;SDS011;9396;51.510;11.934;2024-03-02T07:07:09;30.07;;;19.83;;
18532;SDS011;9396;51.510;11.934;2024-03-02T07:09:36;29.80;;;19.43;;
18532;SDS011;9396;51.510;11.934;2024-03-02T07:12:03;30.80;;;20.63;;
18532;SDS011;9396;51.510;11.934;2024-03-02T07:14:31;26.87;;;19.10;;
18532;SDS011;9396;51.510;11.934;2024-03-02T07:17:12;28.07;;;18.83;;
18532;SDS011;9396;51.510;11.934;2024-03-02T07:19:38;29.80;;;19.67;;
18532;SDS011;9396;51.510;11.934;2024-03-02T07:22:05;26.80;;;19.13;;
18532;SDS011;9396;51.510;11.934;2024-03-02T07:24:38;31.83;;;19.93;;
18532;SDS011;9396;51.510;11.934;2024-03-02T07:27:05;33.40;;;21.33;;
18532;SDS011;9396;51.510;11.934;2024-03-02T07:29:33;32.47;;;22.53;;
18532;SDS011;9396;51.510;11.934;2024-03-02T07:31:59;38.03;;;23.40;;
18532;SDS011;9396;51.510;11.934;2024-03-02T07:34:26;37.67;;;24.33;;
18532;SDS011;9396;51.510;11.934;2024-03-02T07:36:52;36.50;;;23.83;;
18532;SDS011;9396;51.510;11.934;2024-03-02T07:39:19;35.57;;;23.73;;
18532;SDS011;9396;51.510;11.934;2024-03-02T07:41:46;35.30;;;23.13;;
18532;SDS011;9396;51.510;11.934;2024-03-02T07:44:13;32.47;;;22.20;;
18532;SDS011;9396;51.510;11.934;2024-03-02T07:46:41;33.57;;;22.77;;
18532;SDS011;9396;51.510;11.934;2024-03-02T07:49:09;34.13;;;22.47;;
18532;SDS011;9396;51.510;11.934;2024-03-02T07:51:35;32.30;;;21.63;;
18532;SDS011;9396;51.510;11.934;2024-03-02T07:54:02;30.83;;;21.23;;
18532;SDS011;9396;51.510;11.934;2024-03-02T07:56:29;31.37;;;21.13;;
18532;SDS011;9396;51.510;11.934;2024-03-02T07:58:56;32.70;;;20.83;;
18532;SDS011;9396;51.510;11.934;2024-03-02T08:01:26;32.93;;;20.77;;
18532;SDS011;9396;51.510;11.934;2024-03-02T08:03:54;30.97;;;20.87;;
18532;SDS011;9396;51.510;11.934;2024-03-02T08:06:23;30.47;;;20.10;;
18532;SDS011;9396;51.510;11.934;2024-03-02T08:08:52;34.70;;;21.13;;
18532;SDS011;9396;51.510;11.934;2024-03-02T08:11:19;36.00;;;23.80;;
18532;SDS011;9396;51.510;11.934;2024-03-02T08:13:46;35.67;;;22.33;;
18532;SDS011;9396;51.510;11.934;2024-03-02T08:16:12;32.13;;;21.60;;
18532;SDS011;9396;51.510;11.934;2024-03-02T08:18:39;36.80;;;22.93;;
18532;SDS011;9396;51.510;11.934;2024-03-02T08:21:07;33.50;;;22.37;;
18532;SDS011;9396;51.510;11.934;2024-03-02T08:23:34;33.90;;;22.23;;
18532;SDS011;9396;51.510;11.934;2024-03-02T08:26:01;37.07;;;23.50;;
18532;SDS011;9396;51.510;11.934;2024-03-02T08:28:29;35.77;;;21.87;;
18532;SDS011;9396;51.510;11.934;2024-03-02T08:30:56;36.10;;;21.90;;
18532;SDS011;9396;51.510;11.934;2024-03-02T08:33:22;30.73;;;21.17;;
18532;SDS011;9396;51.510;11.934;2024-03-02T08:35:49;38.10;;;23.90;;
18532;SDS011;9396;51.510;11.934;2024-03-02T08:38:17;33.67;;;22.83;;
18532;SDS011;9396;51.510;11.934;2024-03-02T08:40:44;33.70;;;22.20;;
18532;SDS011;9396;51.510;11.934;2024-03-02T08:43:11;35.57;;;22.13;;
18532;SDS011;9396;51.510;11.934;2024-03-02T08:45:38;39.07;;;22.70;;
18532;SDS011;9396;51.510;11.934;2024-03-02T08:48:05;36.67;;;23.17;;
18532;SDS011;9396;51.510;11.934;2024-03-02T08:50:33;35.43;;;23.33;;
18532;SDS011;9396;51.510;11.934;2024-03-02T08:52:59;34.53;;;23.27;;
18532;SDS011;9396;51.510;11.934;2024-03-02T08:55:27;41.17;;;24.03;;
18532;SDS011;9396;51.510;11.934;2024-03-02T08:57:54;35.10;;;22.23;;
18532;SDS011;9396;51.510;11.934;2024-03-02T09:00:21;34.73;;;22.70;;
18532;SDS011;9396;51.510;11.934;2024-03-02T09:02:48;30.73;;;21.87;;
18532;SDS011;9396;51.510;11.934;2024-03-02T09:05:15;34.43;;;22.70;;
18532;SDS011;9396;51.510;11.934;2024-03-02T09:07:42;31.77;;;21.63;;
18532;SDS011;9396;51.510;11.934;2024-03-02T09:10:09;35.70;;;21.70;;
18532;SDS011;9396;51.510;11.934;2024-03-02T09:12:37;33.40;;;21.73;;
18532;SDS011;9396;51.510;11.934;2024-03-02T09:15:04;33.37;;;22.57;;
18532;SDS011;9396;51.510;11.934;2024-03-02T09:17:32;32.83;;;22.60;;
18532;SDS011;9396;51.510;11.934;2024-03-02T09:19:59;35.33;;;22.93;;
18532;SDS011;9396;51.510;11.934;2024-03-02T09:22:25;32.90;;;21.70;;
18532;SDS011;9396;51.510;11.934;2024-03-02T09:24:52;32.43;;;21.83;;
18532;SDS011;9396;51.510;11.934;2024-03-02T09:27:19;33.13;;;22.57;;
18532;SDS011;9396;51.510;11.934;2024-03-02T09:29:47;35.70;;;21.13;;
18532;SDS011;9396;51.510;11.934;2024-03-02T09:32:13;35.77;;;21.67;;
18532;SDS011;9396;51.510;11.934;2024-03-02T09:34:40;30.30;;;20.67;;
18532;SDS011;9396;51.510;11.934;2024-03-02T09:37:08;35.43;;;21.97;;
18532;SDS011;9396;51.510;11.934;2024-03-02T09:39:35;33.60;;;20.80;;
18532;SDS011;9396;51.510;11.934;2024-03-02T09:42:01;32.93;;;22.07;;
18532;SDS011;9396;51.510;11.934;2024-03-02T09:44:30;35.93;;;22.17;;
18532;SDS011;9396;51.510;11.934;2024-03-02T09:46:59;30.70;;;20.50;;
18532;SDS011;9396;51.510;11.934;2024-03-02T09:49:25;33.93;;;20.90;;
18532;SDS011;9396;51.510;11.934;2024-03-02T09:51:52;33.37;;;20.47;;
18532;SDS011;9396;51.510;11.934;2024-03-02T09:54:19;28.70;;;19.33;;
18532;SDS011;9396;51.510;11.934;2024-03-02T09:56:46;31.97;;;20.07;;
18532;SDS011;9396;51.510;11.934;2024-03-02T09:59:13;28.40;;;19.33;;
18532;SDS011;9396;51.510;11.934;2024-03-02T10:01:54;31.83;;;20.60;;
18532;SDS011;9396;51.510;11.934;2024-03-02T10:04:23;28.40;;;18.80;;
18532;SDS011;9396;51.510;11.934;2024-03-02T10:06:51;27.67;;;18.50;;
18532;SDS011;9396;51.510;11.934;2024-03-02T10:09:26;30.90;;;18.93;;
18532;SDS011;9396;51.510;11.934;2024-03-02T10:11:53;29.00;;;18.50;;
18532;SDS011;9396;51.510;11.934;2024-03-02T10:14:30;28.80;;;18.90;;
18532;SDS011;9396;51.510;11.934;2024-03-02T10:17:01;26.50;;;18.13;;
18532;SDS011;9396;51.510;11.934;2024-03-02T10:19:31;24.43;;;17.37;;
18532;SDS011;9396;51.510;11.934;2024-03-02T10:22:00;29.27;;;18.70;;
18532;SDS011;9396;51.510;11.934;2024-03-02T10:24:28;25.17;;;17.60;;
18532;SDS011;9396;51.510;11.934;2024-03-02T10:27:02;27.80;;;17.87;;
18532;SDS011;9396;51.510;11.934;2024-03-02T10:29:35;27.93;;;17.60;;
18532;SDS011;9396;51.510;11.934;2024-03-02T10:32:03;27.20;;;17.23;;
18532;SDS011;9396;51.510;11.934;2024-03-02T10:34:33;28.00;;;17.87;;
18532;SDS011;9396;51.510;11.934;2024-03-02T10:36:59;27.30;;;18.63;;
18532;SDS011;9396;51.510;11.934;2024-03-02T10:39:26;26.47;;;17.40;;
18532;SDS011;9396;51.510;11.934;2024-03-02T10:41:54;25.77;;;16.67;;
18532;SDS011;9396;51.510;11.934;2024-03-02T10:44:22;26.73;;;17.13;;
18532;SDS011;9396;51.510;11.934;2024-03-02T10:46:50;25.67;;;16.63;;
18532;SDS011;9396;51.510;11.934;2024-03-02T10:49:19;24.07;;;16.80;;
18532;SDS011;9396;51.510;11.934;2024-03-02T10:51:50;24.43;;;16.63;;
18532;SDS011;9396;51.510;11.934;2024-03-02T10:54:17;25.40;;;17.67;;
18532;SDS011;9396;51.510;11.934;2024-03-02T10:56:51;25.53;;;17.23;;
18532;SDS011;9396;51.510;11.934;2024-03-02T10:59:22;27.33;;;18.10;;
18532;SDS011;9396;51.510;11.934;2024-03-02T11:01:54;25.47;;;17.27;;
18532;SDS011;9396;51.510;11.934;2024-03-02T11:04:22;24.80;;;16.43;;
18532;SDS011;9396;51.510;11.934;2024-03-02T11:06:54;26.47;;;17.53;;
18532;SDS011;9396;51.510;11.934;2024-03-02T11:09:26;28.43;;;16.53;;
18532;SDS011;9396;51.510;11.934;2024-03-02T11:11:56;22.57;;;15.40;;
18532;SDS011;9396;51.510;11.934;2024-03-02T11:14:29;23.80;;;16.97;;
18532;SDS011;9396;51.510;11.934;2024-03-02T11:16:57;26.40;;;17.10;;
18532;SDS011;9396;51.510;11.934;2024-03-02T11:19:24;26.90;;;16.60;;
18532;SDS011;9396;51.510;11.934;2024-03-02T11:21:53;27.60;;;15.97;;
18532;SDS011;9396;51.510;11.934;2024-03-02T11:24:32;24.10;;;16.10;;
18532;SDS011;9396;51.510;11.934;2024-03-02T11:26:58;39.77;;;16.93;;
18532;SDS011;9396;51.510;11.934;2024-03-02T11:29:42;28.67;;;17.13;;
18532;SDS011;9396;51.510;11.934;2024-03-02T11:32:13;26.60;;;16.70;;
18532;SDS011;9396;51.510;11.934;2024-03-02T11:34:41;20.80;;;15.77;;
18532;SDS011;9396;51.510;11.934;2024-03-02T11:37:13;19.57;;;15.20;;
18532;SDS011;9396;51.510;11.934;2024-03-02T11:39:40;26.37;;;15.90;;
18532;SDS011;9396;51.510;11.934;2024-03-02T11:42:08;23.83;;;16.00;;
18532;SDS011;9396;51.510;11.934;2024-03-02T11:44:35;24.13;;;15.00;;
18532;SDS011;9396;51.510;11.934;2024-03-02T11:47:05;22.23;;;15.23;;
18532;SDS011;9396;51.510;11.934;2024-03-02T11:49:38;22.10;;;14.73;;
18532;SDS011;9396;51.510;11.934;2024-03-02T11:52:06;23.77;;;14.90;;
18532;SDS011;9396;51.510;11.934;2024-03-02T11:54:36;38.20;;;16.53;;
18532;SDS011;9396;51.510;11.934;2024-03-02T11:57:04;24.07;;;15.90;;
18532;SDS011;9396;51.510;11.934;2024-03-02T11:59:37;21.13;;;15.37;;
18532;SDS011;9396;51.510;11.934;2024-03-02T12:02:04;22.57;;;15.77;;
18532;SDS011;9396;51.510;11.934;2024-03-02T12:04:31;22.33;;;15.00;;
18532;SDS011;9396;51.510;11.934;2024-03-02T12:07:00;20.70;;;14.47;;
18532;SDS011;9396;51.510;11.934;2024-03-02T12:09:27;18.93;;;13.83;;
18532;SDS011;9396;51.510;11.934;2024-03-02T12:12:05;20.97;;;14.50;;
18532;SDS011;9396;51.510;11.934;2024-03-02T12:14:33;19.27;;;13.43;;
18532;SDS011;9396;51.510;11.934;2024-03-02T12:17:00;20.20;;;13.83;;
18532;SDS011;9396;51.510;11.934;2024-03-02T12:19:27;20.23;;;13.80;;
18532;SDS011;9396;51.510;11.934;2024-03-02T12:21:55;24.80;;;13.40;;
18532;SDS011;9396;51.510;11.934;2024-03-02T12:24:22;18.53;;;12.40;;
18532;SDS011;9396;51.510;11.934;2024-03-02T12:26:49;15.30;;;10.97;;
18532;SDS011;9396;51.510;11.934;2024-03-02T12:29:19;20.00;;;12.10;;
18532;SDS011;9396;51.510;11.934;2024-03-02T12:31:47;16.63;;;12.10;;
18532;SDS011;9396;51.510;11.934;2024-03-02T12:34:15;17.60;;;11.63;;
18532;SDS011;9396;51.510;11.934;2024-03-02T12:36:43;15.80;;;11.43;;
18532;SDS011;9396;51.510;11.934;2024-03-02T12:39:12;16.10;;;11.27;;
18532;SDS011;9396;51.510;11.934;2024-03-02T12:41:39;15.93;;;10.83;;
18532;SDS011;9396;51.510;11.934;2024-03-02T12:44:07;13.93;;;10.07;;
18532;SDS011;9396;51.510;11.934;2024-03-02T12:46:35;19.03;;;10.37;;
18532;SDS011;9396;51.510;11.934;2024-03-02T12:49:05;15.50;;;10.63;;
18532;SDS011;9396;51.510;11.934;2024-03-02T12:51:35;12.73;;;9.20;;
18532;SDS011;9396;51.510;11.934;2024-03-02T12:54:03;13.03;;;9.67;;
18532;SDS011;9396;51.510;11.934;2024-03-02T12:56:30;14.17;;;10.30;;
18532;SDS011;9396;51.510;11.934;2024-03-02T12:58:58;14.20;;;10.67;;
18532;SDS011;9396;51.510;11.934;2024-03-02T13:01:25;14.87;;;9.50;;
18532;SDS011;9396;51.510;11.934;2024-03-02T13:03:53;13.50;;;9.43;;
18532;SDS011;9396;51.510;11.934;2024-03-02T13:06:22;15.40;;;10.43;;
18532;SDS011;9396;51.510;11.934;2024-03-02T13:08:49;14.77;;;10.03;;
18532;SDS011;9396;51.510;11.934;2024-03-02T13:11:16;15.40;;;9.87;;
18532;SDS011;9396;51.510;11.934;2024-03-02T13:13:43;16.27;;;10.77;;
18532;SDS011;9396;51.510;11.934;2024-03-02T13:16:10;15.43;;;10.37;;
18532;SDS011;9396;51.510;11.934;2024-03-02T13:18:38;14.37;;;10.27;;
18532;SDS011;9396;51.510;11.934;2024-03-02T13:21:07;15.30;;;10.50;;
18532;SDS011;9396;51.510;11.934;2024-03-02T13:23:33;14.00;;;10.03;;
18532;SDS011;9396;51.510;11.934;2024-03-02T13:26:00;16.37;;;10.50;;
18532;SDS011;9396;51.510;11.934;2024-03-02T13:28:27;13.90;;;9.60;;
18532;SDS011;9396;51.510;11.934;2024-03-02T13:30:54;13.47;;;9.30;;
18532;SDS011;9396;51.510;11.934;2024-03-02T13:33:20;15.50;;;9.23;;
18532;SDS011;9396;51.510;11.934;2024-03-02T13:35:48;13.40;;;9.67;;
18532;SDS011;9396;51.510;11.934;2024-03-02T13:38:17;12.77;;;9.33;;
18532;SDS011;9396;51.510;11.934;2024-03-02T13:40:45;12.37;;;8.80;;
18532;SDS011;9396;51.510;11.934;2024-03-02T13:43:12;13.07;;;7.97;;
18532;SDS011;9396;51.510;11.934;2024-03-02T13:45:39;9.07;;;7.07;;
18532;SDS011;9396;51.510;11.934;2024-03-02T13:48:05;9.80;;;6.57;;
18532;SDS011;9396;51.510;11.934;2024-03-02T13:50:33;9.97;;;6.87;;
18532;SDS011;9396;51.510;11.934;2024-03-02T13:53:00;9.80;;;6.80;;
18532;SDS011;9396;51.510;11.934;2024-03-02T13:55:29;10.53;;;8.27;;
18532;SDS011;9396;51.510;11.934;2024-03-02T13:57:56;10.63;;;7.80;;
18532;SDS011;9396;51.510;11.934;2024-03-02T14:00:23;10.27;;;7.80;;
18532;SDS011;9396;51.510;11.934;2024-03-02T14:02:50;10.13;;;7.67;;
18532;SDS011;9396;51.510;11.934;2024-03-02T14:05:17;12.70;;;7.90;;
18532;SDS011;9396;51.510;11.934;2024-03-02T14:07:44;9.47;;;6.53;;
18532;SDS011;9396;51.510;11.934;2024-03-02T14:10:11;9.43;;;6.77;;
18532;SDS011;9396;51.510;11.934;2024-03-02T14:12:40;12.60;;;7.77;;
18532;SDS011;9396;51.510;11.934;2024-03-02T14:15:07;12.00;;;8.30;;
18532;SDS011;9396;51.510;11.934;2024-03-02T14:17:34;13.87;;;9.10;;
18532;SDS011;9396;51.510;11.934;2024-03-02T14:20:01;12.87;;;9.00;;
18532;SDS011;9396;51.510;11.934;2024-03-02T14:22:29;11.03;;;7.97;;
18532;SDS011;9396;51.510;11.934;2024-03-02T14:24:56;11.73;;;7.70;;
18532;SDS011;9396;51.510;11.934;2024-03-02T14:27:23;10.50;;;7.53;;
18532;SDS011;9396;51.510;11.934;2024-03-02T14:29:52;10.07;;;7.17;;
18532;SDS011;9396;51.510;11.934;2024-03-02T14:32:18;10.20;;;7.47;;